Time;durP1;ratioP1;P1;durP2;ratioP2;P2;SDS_P1;SDS_P2;PMS_P1;PMS_P2;Temp;Humidity;BMP_temperature;BMP_pressure;BME280_temperature;BME280_humidity;BME280_pressure;Samples;Min_cycle;Max_cycle;Signal;HPM_P1;HPM_P2
2022/09/23 00:00:42;;;;;;;83.03;47.05;;;;;;;5.46;88.41;101247.92;1753235;81;21049;-73
2022/09/23 00:03:10;;;;;;;68.02;39.38;;;;;;;5.44;88.46;101244.56;1733751;80;21051;-73
2022/09/23 00:05:37;;;;;;;71.02;42.15;;;;;;;5.37;88.48;101244.67;1719868;81;21532;-73
2022/09/23 00:08:04;;;;;;;59.58;35.60;;;;;;;5.36;88.51;101244.30;1749152;82;21161;-73
2022/09/23 00:10:30;;;;;;;54.13;31.57;;;;;;;5.29;88.49;101245.72;1733472;80;21561;-73
2022/09/23 00:12:57;;;;;;;52.33;31.70;;;;;;;5.26;88.55;101250.39;1739011;82;21058;-72
2022/09/23 00:15:24;;;;;;;59.50;36.48;;;;;;;5.29;88.58;101246.19;1733276;82;21051;-73
2022/09/23 00:17:53;;;;;;;57.03;37.23;;;;;;;5.34;88.64;101248.88;1739429;82;21030;-73
2022/09/23 00:20:19;;;;;;;76.17;44.00;;;;;;;5.32;88.63;101244.16;1742183;82;21010;-72
2022/09/23 00:22:45;;;;;;;57.05;33.78;;;;;;;5.30;88.69;101246.56;1750791;82;21007;-72
2022/09/23 00:25:11;;;;;;;48.35;27.80;;;;;;;5.29;88.72;101243.07;1749976;82;21512;-73
2022/09/23 00:27:38;;;;;;;50.03;31.10;;;;;;;5.32;88.77;101245.48;1730821;80;21712;-73
2022/09/23 00:30:06;;;;;;;45.75;29.32;;;;;;;5.29;88.78;101248.36;1741825;81;21003;-72
2022/09/23 00:32:33;;;;;;;41.80;25.08;;;;;;;5.28;88.83;101244.02;1729772;81;22008;-72
2022/09/23 00:34:59;;;;;;;38.20;22.02;;;;;;;5.26;88.87;101238.02;1750548;82;20984;-73
2022/09/23 00:37:25;;;;;;;36.48;22.22;;;;;;;5.25;88.90;101236.80;1749812;82;21070;-72
2022/09/23 00:39:51;;;;;;;37.40;21.33;;;;;;;5.18;88.87;101240.39;1731254;80;20998;-73
2022/09/23 00:42:22;;;;;;;33.33;19.02;;;;;;;5.15;88.94;101237.97;1728296;82;21014;-73
2022/09/23 00:44:57;;;;;;;32.05;19.15;;;;;;;5.11;88.99;101235.66;1729561;82;21168;-72
2022/09/23 00:47:35;;;;;;;30.35;19.00;;;;;;;5.10;89.01;101236.64;1722026;82;21039;-73
2022/09/23 00:50:18;;;;;;;23.60;16.40;;;;;;;5.10;89.06;101237.49;1739202;82;21038;-73
2022/09/23 00:52:44;;;;;;;28.02;15.83;;;;;;;5.02;89.02;101232.77;1727861;82;20960;-73
2022/09/23 00:55:18;;;;;;;24.02;14.87;;;;;;;5.01;89.05;101224.94;1725643;82;21022;-73
2022/09/23 00:57:44;;;;;;;29.32;17.00;;;;;;;5.05;89.09;101222.44;1741741;80;21476;-73
2022/09/23 01:00:11;;;;;;;32.40;17.80;;;;;;;5.04;89.09;101224.70;1727664;82;21007;-72
2022/09/23 01:02:38;;;;;;;36.98;19.95;;;;;;;5.01;89.10;101222.30;1742801;82;21066;-72
2022/09/23 01:05:05;;;;;;;29.45;15.58;;;;;;;4.94;89.13;101218.42;1730158;80;21142;-73
2022/09/23 01:07:31;;;;;;;26.37;15.43;;;;;;;4.84;89.12;101216.95;1730457;81;21003;-72
2022/09/23 01:09:58;;;;;;;31.75;17.57;;;;;;;4.73;89.12;101214.25;1740568;81;21164;-72
2022/09/23 01:12:33;;;;;;;29.95;19.00;;;;;;;4.73;89.19;101216.05;1725072;80;21051;-73
2022/09/23 01:15:14;;;;;;;36.35;18.55;;;;;;;4.75;89.24;101208.87;1742245;80;21101;-72
2022/09/23 01:18:14;;;;;;;28.17;15.05;;;;;;;4.73;89.25;101209.44;1728151;81;20995;-73
2022/09/23 01:21:16;;;;;;;29.50;15.75;;;;;;;4.74;89.31;101208.49;1744816;81;21069;-73
2022/09/23 01:24:18;;;;;;;21.73;12.68;;;;;;;4.75;89.34;101200.44;1719118;81;21598;-72
2022/09/23 01:27:08;;;;;;;21.77;13.20;;;;;;;4.77;89.35;101205.62;1753344;81;21496;-73
2022/09/23 01:29:54;;;;;;;20.23;12.78;;;;;;;4.65;89.31;101197.26;1734515;81;21014;-73
2022/09/23 01:33:07;;;;;;;19.80;13.30;;;;;;;4.53;89.31;101201.19;1721568;81;21559;-73
2022/09/23 01:35:47;;;;;;;25.17;13.88;;;;;;;4.47;89.36;101193.69;1710224;84;21530;-73
2022/09/23 01:38:37;;;;;;;23.67;12.93;;;;;;;4.52;89.45;101199.97;1753374;80;21129;-73
2022/09/23 01:41:18;;;;;;;20.65;11.43;;;;;;;4.57;89.51;101199.64;1718348;81;21078;-73
2022/09/23 01:43:49;;;;;;;22.50;13.40;;;;;;;4.59;89.54;101197.24;1752641;81;21042;-73
2022/09/23 01:46:26;;;;;;;23.40;12.65;;;;;;;4.60;89.55;101196.77;1729706;80;21563;-73
2022/09/23 01:49:18;;;;;;;21.90;11.40;;;;;;;4.59;89.57;101191.11;1738523;81;21076;-73
2022/09/23 01:51:52;;;;;;;21.60;13.28;;;;;;;4.60;89.64;101189.69;1753127;81;21983;-73
2022/09/23 01:54:25;;;;;;;21.40;13.53;;;;;;;4.65;89.65;101189.33;1753646;81;21078;-73
2022/09/23 01:57:00;;;;;;;19.17;12.90;;;;;;;4.64;89.69;101182.39;1738488;81;21051;-73
2022/09/23 01:59:36;;;;;;;23.02;14.75;;;;;;;4.63;89.71;101185.50;1734245;80;20996;-73
2022/09/23 02:02:35;;;;;;;22.40;14.00;;;;;;;4.59;89.76;101183.19;1743259;81;20995;-73
2022/09/23 02:05:14;;;;;;;21.80;12.45;;;;;;;4.61;89.77;101179.47;1746935;80;21266;-74
2022/09/23 02:07:48;;;;;;;20.00;12.45;;;;;;;4.64;89.80;101176.63;1738033;81;21003;-73
2022/09/23 02:10:36;;;;;;;22.58;12.88;;;;;;;4.65;89.81;101184.05;1731969;82;21023;-73
2022/09/23 02:13:07;;;;;;;20.68;12.53;;;;;;;4.60;89.85;101182.24;1739301;82;21043;-73
2022/09/23 02:15:39;;;;;;;21.65;12.40;;;;;;;4.62;89.88;101182.96;1725861;82;21589;-74
2022/09/23 02:18:15;;;;;;;22.60;13.95;;;;;;;4.62;89.87;101186.45;1749048;82;21027;-73
2022/09/23 02:20:41;;;;;;;22.05;11.93;;;;;;;4.61;89.89;101186.58;1723108;82;21761;-73
2022/09/23 02:23:11;;;;;;;24.63;12.90;;;;;;;4.50;89.87;101180.25;1719297;82;21551;-73
2022/09/23 02:26:08;;;;;;;20.72;12.90;;;;;;;4.38;89.86;101174.56;1734747;82;21046;-73
2022/09/23 02:28:46;;;;;;;20.32;13.00;;;;;;;4.39;89.92;101178.90;1707931;83;21484;-73
2022/09/23 02:31:57;;;;;;;24.80;14.85;;;;;;;4.39;89.96;101176.26;1700613;83;21171;-73
2022/09/23 02:34:34;;;;;;;22.05;13.45;;;;;;;4.41;89.95;101175.66;1699144;83;21070;-73
2022/09/23 02:37:37;;;;;;;28.17;13.45;;;;;;;4.39;89.93;101174.94;1694031;83;21550;-73
2022/09/23 02:40:15;;;;;;;28.12;15.32;;;;;;;4.41;89.90;101175.66;1696804;83;21499;-73
2022/09/23 02:43:12;;;;;;;23.42;14.03;;;;;;;4.40;89.95;101173.96;1701469;83;21113;-73
2022/09/23 02:45:38;;;;;;;18.87;13.05;;;;;;;4.40;90.00;101173.11;1685730;83;21708;-74
2022/09/23 02:48:19;;;;;;;27.75;14.05;;;;;;;4.37;90.00;101172.87;1659828;85;21087;-73
2022/09/23 02:50:46;;;;;;;23.83;13.68;;;;;;;4.39;89.99;101172.30;1691084;83;21101;-73
2022/09/23 02:53:14;;;;;;;28.73;15.58;;;;;;;4.38;89.94;101170.60;1701969;83;21570;-73
2022/09/23 02:55:42;;;;;;;25.57;15.25;;;;;;;4.36;89.98;101169.86;1701158;83;21070;-74
2022/09/23 02:58:12;;;;;;;24.75;13.78;;;;;;;4.29;90.02;101179.17;1695267;83;21110;-74
2022/09/23 03:01:05;;;;;;;23.73;13.70;;;;;;;4.24;90.07;101177.83;1699390;83;21073;-73
2022/09/23 03:03:39;;;;;;;28.25;15.05;;;;;;;4.22;90.12;101178.43;1724357;82;21102;-73
2022/09/23 03:06:20;;;;;;;29.20;14.28;;;;;;;4.27;90.11;101179.77;1733449;82;20983;-72
2022/09/23 03:08:52;;;;;;;23.92;13.43;;;;;;;4.29;90.10;101183.64;1722477;82;21598;-73
2022/09/23 03:11:18;;;;;;;22.98;13.95;;;;;;;4.26;90.07;101179.39;1732607;82;21041;-73
2022/09/23 03:14:15;;;;;;;21.12;12.85;;;;;;;4.23;90.10;101175.66;1722560;82;21067;-73
2022/09/23 03:17:08;;;;;;;26.20;13.58;;;;;;;4.18;90.09;101173.84;1735974;82;21586;-73
2022/09/23 03:19:55;;;;;;;26.82;14.53;;;;;;;4.13;90.08;101173.32;1749586;82;20998;-73
2022/09/23 03:22:29;;;;;;;25.45;14.20;;;;;;;4.05;90.10;101164.28;1745299;82;21030;-73
2022/09/23 03:24:59;;;;;;;26.50;13.13;;;;;;;4.00;90.14;101172.52;1736009;82;21240;-71
2022/09/23 03:27:26;;;;;;;;;;;;;;;4.01;90.14;101165.79;1748566;80;21449;-70
2022/09/23 03:29:52;;;;;;;23.32;14.50;;;;;;;3.98;90.16;101159.89;1704511;83;20497;-71
2022/09/23 03:32:21;;;;;;;26.82;13.78;;;;;;;3.97;90.17;101160.86;1654220;85;21031;-73
2022/09/23 03:34:50;;;;;;;24.15;14.07;;;;;;;4.04;90.20;101156.84;1699848;84;21563;-73
2022/09/23 03:37:30;;;;;;;27.42;13.13;;;;;;;4.01;90.18;101150.46;1723705;82;21300;-73
2022/09/23 03:40:08;;;;;;;24.27;12.73;;;;;;;3.90;90.15;101150.38;1722837;82;21508;-73
2022/09/23 04:08:52;;;;;;;30.60;17.25;;;;;;;3.92;90.38;101124.24;1912882;74;22708;-73
2022/09/23 04:11:18;;;;;;;26.90;15.28;;;;;;;3.87;90.35;101126.86;1855675;77;20900;-72
2022/09/23 04:13:44;;;;;;;29.82;16.82;;;;;;;3.93;90.39;101125.09;1862511;75;21093;-73
2022/09/23 04:16:10;;;;;;;40.65;18.75;;;;;;;3.91;90.38;101128.30;1846294;75;21389;-72
2022/09/23 04:18:36;;;;;;;41.77;21.15;;;;;;;3.84;90.34;101131.00;1866035;76;21444;-73
2022/09/23 04:21:03;;;;;;;43.13;25.12;;;;;;;3.82;90.37;101122.37;1863033;75;20987;-72
2022/09/23 04:23:29;;;;;;;35.10;19.77;;;;;;;3.75;90.38;101123.75;1865927;77;21014;-73
2022/09/23 04:25:55;;;;;;;35.25;18.80;;;;;;;3.76;90.41;101124.13;1866070;76;21125;-73
2022/09/23 04:28:21;;;;;;;34.18;18.32;;;;;;;3.72;90.42;101129.25;1853676;75;20946;-73
2022/09/23 04:30:47;;;;;;;37.42;20.32;;;;;;;3.71;90.46;101120.96;1859937;77;20926;-72
2022/09/23 04:33:14;;;;;;;43.05;21.10;;;;;;;3.65;90.42;101122.72;1865902;75;21424;-72
2022/09/23 04:35:41;;;;;;;42.20;20.23;;;;;;;3.64;90.44;101119.70;1859654;75;20951;-72
2022/09/23 04:38:10;;;;;;;38.13;20.62;;;;;;;3.68;90.45;101122.50;1866118;77;21124;-72
2022/09/23 04:40:36;;;;;;;47.70;21.37;;;;;;;3.65;90.44;101114.34;1866060;77;20940;-73
2022/09/23 04:43:02;;;;;;;53.08;23.02;;;;;;;3.58;90.43;101112.23;1866014;76;21014;-72
2022/09/23 04:45:29;;;;;;;45.23;23.18;;;;;;;3.56;90.42;101119.39;1863179;75;20979;-72
2022/09/23 04:47:57;;;;;;;39.13;20.68;;;;;;;3.61;90.47;101111.55;1865889;75;21011;-72
2022/09/23 04:50:25;;;;;;;42.45;20.72;;;;;;;3.72;90.52;101114.74;1849244;77;21943;-72
2022/09/23 04:52:52;;;;;;;37.90;21.65;;;;;;;3.70;90.51;101119.27;1865762;77;21050;-72
2022/09/23 04:55:18;;;;;;;57.55;26.45;;;;;;;3.69;90.53;101114.97;1866094;77;21541;-72
2022/09/23 04:57:45;;;;;;;62.00;30.32;;;;;;;3.73;90.59;101116.44;1850448;75;21428;-72
2022/09/23 05:00:12;;;;;;;65.47;32.35;;;;;;;3.77;90.62;101117.41;1842704;77;20958;-72
2022/09/23 05:02:45;;;;;;;60.88;32.70;;;;;;;3.81;90.65;101117.56;1865175;75;21082;-72
2022/09/23 05:05:12;;;;;;;72.75;32.83;;;;;;;3.80;90.64;101119.01;1861492;75;20998;-72
2022/09/23 05:07:39;;;;;;;81.85;37.03;;;;;;;3.75;90.66;101116.69;1850442;75;21013;-72
2022/09/23 05:10:06;;;;;;;70.95;36.70;;;;;;;3.81;90.73;101120.20;1887940;75;20995;-73
2022/09/23 05:12:33;;;;;;;64.45;35.08;;;;;;;4.31;91.03;101124.48;1864581;75;21061;-72
2022/09/23 05:14:59;;;;;;;49.05;29.75;;;;;;;5.14;91.39;101125.24;1864518;75;21200;-73
2022/09/23 05:17:25;;;;;;;40.43;24.75;;;;;;;5.81;91.49;101118.19;1883108;75;21506;-73
2022/09/23 05:19:51;;;;;;;35.15;24.02;;;;;;;6.43;91.48;101114.48;1880042;75;20978;-73
2022/09/23 05:22:17;;;;;;;32.33;21.60;;;;;;;7.03;91.42;101114.33;1884913;75;21770;-73
2022/09/23 05:24:43;;;;;;;30.62;22.13;;;;;;;7.70;91.39;101119.14;1883777;75;20995;-73
2022/09/23 05:27:09;;;;;;;34.15;21.93;;;;;;;8.53;91.35;101113.84;1881125;74;21111;-73
2022/09/23 05:29:35;;;;;;;31.65;21.10;;;;;;;9.12;91.05;101119.45;1863820;75;21026;-73
2022/09/23 05:32:01;;;;;;;29.42;20.50;;;;;;;9.79;90.79;101121.06;1863735;75;21013;-73
2022/09/23 05:34:27;;;;;;;34.63;20.77;;;;;;;10.29;90.37;101120.20;1863343;75;21041;-73
2022/09/23 05:36:53;;;;;;;32.73;19.60;;;;;;;10.52;89.96;101114.27;1863685;75;21633;-74
2022/09/23 05:39:19;;;;;;;38.92;19.30;;;;;;;10.60;89.47;101119.33;1863217;75;21709;-73
2022/09/23 05:41:45;;;;;;;32.83;19.00;;;;;;;10.66;88.92;101118.75;1863421;75;20954;-73
2022/09/23 05:44:12;;;;;;;36.25;21.75;;;;;;;10.31;87.83;101119.05;1863331;74;21074;-73
2022/09/23 05:46:38;;;;;;;28.05;19.98;;;;;;;9.76;87.51;101120.03;1863859;75;20970;-73
2022/09/23 05:49:05;;;;;;;34.00;21.15;;;;;;;9.15;87.67;101125.81;1863301;75;20971;-73
2022/09/23 05:51:33;;;;;;;29.67;20.57;;;;;;;8.82;87.96;101131.61;1893294;74;21133;-73
2022/09/23 05:54:01;;;;;;;39.58;23.55;;;;;;;8.71;88.27;101122.44;1876134;74;21467;-73
2022/09/23 05:56:28;;;;;;;33.02;23.60;;;;;;;8.69;88.52;101125.23;1899498;74;20927;-73
2022/09/23 05:58:56;;;;;;;43.40;23.87;;;;;;;8.70;88.74;101126.07;1874806;75;20974;-73
2022/09/23 06:01:24;;;;;;;51.30;30.90;;;;;;;8.76;88.86;101121.55;1884430;75;21463;-74
2022/09/23 06:03:52;;;;;;;50.85;31.80;;;;;;;8.84;89.01;101121.17;1868621;75;21137;-73
2022/09/23 06:06:22;;;;;;;53.85;30.32;;;;;;;9.06;89.12;101126.69;1862868;75;21478;-73
2022/09/23 06:08:48;;;;;;;48.70;28.92;;;;;;;9.36;89.18;101125.14;1863674;75;20986;-73
2022/09/23 06:11:14;;;;;;;43.98;26.25;;;;;;;9.60;89.30;101124.67;1874359;75;21194;-73
2022/09/23 06:13:40;;;;;;;38.50;26.55;;;;;;;9.71;89.40;101126.31;1873114;75;21006;-73
2022/09/23 06:16:11;;;;;;;42.50;24.67;;;;;;;9.94;89.48;101124.92;1866354;75;21995;-74
2022/09/23 06:18:39;;;;;;;38.73;25.68;;;;;;;10.02;89.60;101123.70;1848894;75;20984;-73
2022/09/23 06:21:05;;;;;;;41.45;24.90;;;;;;;10.11;89.69;101133.95;1855408;75;21458;-73
2022/09/23 06:23:31;;;;;;;34.15;21.07;;;;;;;10.19;89.76;101128.75;1873112;75;20975;-74
2022/09/23 06:26:01;;;;;;;26.25;18.35;;;;;;;10.25;89.81;101128.98;1845695;75;21413;-73
2022/09/23 06:28:35;;;;;;;24.18;17.17;;;;;;;10.37;89.84;101123.80;1861214;75;21145;-73
2022/09/23 06:31:03;;;;;;;33.20;19.80;;;;;;;10.55;89.83;101121.64;1861117;74;20986;-74
2022/09/23 06:33:31;;;;;;;49.53;25.95;;;;;;;10.72;89.85;101126.97;1863913;75;21073;-73
2022/09/23 06:35:58;;;;;;;29.25;18.30;;;;;;;10.92;89.89;101118.29;1888445;74;21005;-74
2022/09/23 06:38:25;;;;;;;28.92;16.77;;;;;;;11.09;89.87;101116.09;1874431;74;20983;-74
2022/09/23 06:40:53;;;;;;;19.25;14.50;;;;;;;11.29;89.91;101113.58;1900991;74;21411;-74
2022/09/23 06:43:20;;;;;;;21.68;16.15;;;;;;;11.48;90.06;101112.02;1862340;74;21077;-74
2022/09/23 06:45:46;;;;;;;21.40;14.95;;;;;;;11.51;90.12;101111.69;1873652;74;21309;-74
2022/09/23 06:48:13;;;;;;;24.25;13.95;;;;;;;11.51;90.08;101109.02;1890289;75;21021;-73
2022/09/23 06:50:39;;;;;;;19.95;13.85;;;;;;;11.60;90.04;101101.06;1851980;75;20978;-73
2022/09/23 06:53:05;;;;;;;16.42;11.80;;;;;;;11.71;90.04;101103.49;1841119;75;21482;-73
2022/09/23 06:55:31;;;;;;;16.60;11.15;;;;;;;11.88;90.03;101097.22;1841335;75;21687;-74
2022/09/23 06:57:58;;;;;;;14.40;8.43;;;;;;;12.06;90.01;101097.95;1874402;75;21014;-74
2022/09/23 07:00:25;;;;;;;20.55;9.50;;;;;;;12.20;89.94;101101.34;1828560;77;20997;-74
2022/09/23 07:02:53;;;;;;;13.30;8.38;;;;;;;12.24;89.83;101097.34;1813022;77;21009;-73
2022/09/23 07:05:21;;;;;;;13.88;9.08;;;;;;;12.33;89.81;101095.01;1826864;77;21512;-73
2022/09/23 07:07:47;;;;;;;17.87;9.23;;;;;;;12.66;89.98;101093.72;1815205;77;21057;-73
2022/09/23 07:10:14;;;;;;;15.72;9.50;;;;;;;12.88;89.98;101091.70;1792430;77;21066;-73
2022/09/23 07:12:40;;;;;;;17.10;9.13;;;;;;;13.16;89.96;101091.70;1809000;77;21046;-72
2022/09/23 07:15:07;;;;;;;13.25;8.88;;;;;;;13.34;89.96;101093.69;1795183;77;21078;-72
2022/09/23 07:17:33;;;;;;;23.12;9.53;;;;;;;13.57;89.92;101090.29;1786105;79;21530;-73
2022/09/23 07:20:00;;;;;;;13.55;9.05;;;;;;;13.52;89.82;101101.52;1792470;77;21014;-74
2022/09/23 07:22:26;;;;;;;17.27;8.88;;;;;;;13.54;89.82;101098.17;1794191;77;21835;-72
2022/09/23 07:24:55;;;;;;;10.28;7.85;;;;;;;13.63;89.91;101108.35;1788292;77;21030;-73
2022/09/23 07:27:25;;;;;;;18.45;8.60;;;;;;;13.85;89.90;101108.95;1793334;77;20992;-72
2022/09/23 07:29:52;;;;;;;11.90;7.35;;;;;;;14.01;89.91;101106.19;1789934;77;21137;-73
2022/09/23 07:32:20;;;;;;;11.08;7.85;;;;;;;14.12;89.88;101099.09;1788951;78;20984;-72
2022/09/23 07:34:47;;;;;;;11.83;7.35;;;;;;;14.19;89.84;101104.09;1795324;78;21066;-71
2022/09/23 07:37:16;;;;;;;11.00;6.72;;;;;;;14.17;89.86;101072.59;1813632;77;21078;-72
2022/09/23 07:39:43;;;;;;;13.55;9.05;;;;;;;14.41;89.83;101101.15;1787975;79;21057;-72
2022/09/23 07:42:12;;;;;;;12.03;8.00;;;;;;;14.76;89.87;101105.09;1796954;79;21119;-73
2022/09/23 07:44:38;;;;;;;12.63;7.40;;;;;;;14.91;89.68;101108.67;1790843;77;20990;-73
2022/09/23 07:47:04;;;;;;;11.43;7.55;;;;;;;14.91;89.68;101108.67;1797986;77;21046;-73
2022/09/23 07:49:30;;;;;;;12.63;7.92;;;;;;;14.93;89.80;101106.12;1792974;77;21002;-73
2022/09/23 07:51:56;;;;;;;12.85;7.75;;;;;;;14.75;89.71;101083.27;1786541;79;21030;-73
2022/09/23 07:54:24;;;;;;;9.08;7.10;;;;;;;14.75;89.71;101083.27;1768323;79;21080;-73
2022/09/23 07:56:50;;;;;;;9.63;7.53;;;;;;;14.77;89.64;101102.74;1802077;77;21078;-73
2022/09/23 07:59:17;;;;;;;14.58;7.78;;;;;;;14.80;89.62;101107.75;1792964;79;21071;-73
2022/09/23 08:01:47;;;;;;;12.50;7.03;;;;;;;14.89;89.46;101099.94;1790002;77;21013;-73
2022/09/23 08:04:18;;;;;;;;;;;;;;;14.83;89.32;101106.88;1785698;77;21054;-73
2022/09/23 08:06:47;;;;;;;10.50;6.53;;;;;;;14.64;89.10;101106.52;1795243;78;21857;-73
2022/09/23 08:09:14;;;;;;;6.92;5.35;;;;;;;14.58;89.07;101105.89;1797619;78;21527;-73
2022/09/23 08:11:40;;;;;;;7.62;5.30;;;;;;;14.73;89.17;101100.09;1817686;77;20974;-73
2022/09/23 08:14:12;;;;;;;9.05;5.45;;;;;;;14.89;89.05;101108.00;1811297;77;20999;-73
2022/09/23 08:16:39;;;;;;;8.65;4.85;;;;;;;15.08;88.94;101103.48;1845670;75;21069;-72
2022/09/23 08:19:06;;;;;;;7.42;4.50;;;;;;;15.03;88.78;101105.02;1851523;75;21501;-72
2022/09/23 08:21:32;;;;;;;7.87;5.55;;;;;;;15.14;88.75;101108.12;1822621;77;21061;-70
2022/09/23 08:23:58;;;;;;;7.60;5.37;;;;;;;15.30;88.61;101106.64;1807597;77;20998;-70
2022/09/23 08:26:24;;;;;;;11.38;7.28;;;;;;;15.48;88.59;101112.50;1803310;77;21018;-70
2022/09/23 08:28:55;;;;;;;7.67;5.17;;;;;;;15.56;88.48;101104.86;1812303;77;21028;-70
2022/09/23 08:31:21;;;;;;;10.80;5.00;;;;;;;15.67;88.49;101103.06;1840017;77;21554;-70
2022/09/23 08:33:53;;;;;;;7.87;5.15;;;;;;;15.71;88.45;101098.14;1845044;75;20974;-70
2022/09/23 08:36:20;;;;;;;7.15;5.53;;;;;;;15.77;88.38;101102.77;1847317;75;21774;-70
2022/09/23 08:38:46;;;;;;;7.45;4.17;;;;;;;15.72;88.27;101099.82;1842717;75;21063;-70
2022/09/23 08:41:38;;;;;;;7.05;4.90;;;;;;;15.79;88.28;101096.72;1841892;76;21049;-70
2022/09/23 08:44:22;;;;;;;6.60;4.42;;;;;;;15.83;88.09;101100.16;1840628;77;21739;-70
2022/09/23 08:47:10;;;;;;;6.90;4.85;;;;;;;15.88;87.78;101095.08;1829656;75;21522;-70
2022/09/23 08:50:14;;;;;;;7.28;4.33;;;;;;;15.88;87.58;101091.55;1827433;75;20990;-70
2022/09/23 08:53:02;;;;;;;7.05;3.95;;;;;;;15.83;87.45;101089.41;1839376;75;21879;-69
2022/09/23 08:55:36;;;;;;;5.97;4.10;;;;;;;15.75;87.21;101088.69;1845475;77;21006;-70
2022/09/23 08:58:35;;;;;;;7.78;3.98;;;;;;;15.75;87.15;101084.15;1841113;77;21217;-70
2022/09/23 09:01:40;;;;;;;5.87;3.80;;;;;;;15.85;87.07;101081.16;1836711;75;21604;-72
2022/09/23 09:04:33;;;;;;;6.53;4.45;;;;;;;15.88;87.07;101078.09;1843271;77;21072;-71
2022/09/23 09:07:14;;;;;;;4.25;2.87;;;;;;;15.96;86.98;101078.84;1839212;77;21494;-71
2022/09/23 09:10:06;;;;;;;4.85;2.98;;;;;;;15.95;86.90;101080.36;1840281;77;21037;-71
2022/09/23 09:12:55;;;;;;;5.30;4.00;;;;;;;15.97;86.79;101085.05;1783804;78;21159;-72
2022/09/23 09:15:26;;;;;;;5.28;2.10;;;;;;;16.09;86.74;101071.93;1816069;77;21558;-72
2022/09/23 09:18:00;;;;;;;2.72;1.90;;;;;;;16.15;86.63;101073.34;1831768;76;21053;-72
2022/09/23 09:20:51;;;;;;;6.22;3.40;;;;;;;16.15;86.45;101072.00;1798241;79;21015;-72
2022/09/23 09:23:33;;;;;;;2.02;1.40;;;;;;;16.16;86.39;101072.84;1818888;77;21076;-71
2022/09/23 09:26:02;;;;;;;7.60;2.17;;;;;;;16.21;86.15;101073.95;1824879;77;21387;-71
2022/09/23 09:28:44;;;;;;;4.03;2.02;;;;;;;16.11;85.91;101073.44;1790947;79;21003;-72
2022/09/23 09:31:34;;;;;;;2.87;1.70;;;;;;;16.14;85.80;101078.43;1796901;78;21564;-72
2022/09/23 09:34:25;;;;;;;4.83;1.52;;;;;;;16.22;85.67;101073.45;1781791;79;21039;-72
2022/09/23 09:37:11;;;;;;;3.50;1.75;;;;;;;16.15;85.40;101069.84;1815626;77;21014;-71
2022/09/23 09:39:37;;;;;;;2.85;1.85;;;;;;;16.20;85.33;101071.44;1800229;78;21022;-73
2022/09/23 09:42:04;;;;;;;3.65;1.10;;;;;;;16.32;85.28;101064.05;1822514;76;20963;-73
2022/09/23 09:44:39;;;;;;;3.27;1.32;;;;;;;16.29;85.03;101064.94;1826378;78;21524;-72
2022/09/23 09:47:32;;;;;;;2.83;1.27;;;;;;;16.29;84.88;101067.63;1836933;77;21515;-72
2022/09/23 09:50:07;;;;;;;2.72;1.30;;;;;;;16.40;84.64;101053.13;1750400;79;21020;-72
2022/09/23 09:52:34;;;;;;;4.40;2.50;;;;;;;16.43;84.29;101055.97;1840192;77;21056;-72
2022/09/23 09:55:24;;;;;;;1.67;1.30;;;;;;;16.34;84.02;101053.06;1795461;79;21382;-72
2022/09/23 09:58:02;;;;;;;5.40;2.33;;;;;;;16.44;83.92;101050.37;1817125;78;21012;-73
2022/09/23 10:00:37;;;;;;;6.62;2.00;;;;;;;16.52;83.56;101049.93;1823281;77;21120;-72
2022/09/23 10:03:14;;;;;;;3.62;1.47;;;;;;;16.57;83.25;101048.88;1824467;77;20962;-73
2022/09/23 10:05:48;;;;;;;3.12;1.50;;;;;;;16.65;83.05;101047.38;1815707;78;21235;-72
2022/09/23 10:08:25;;;;;;;5.03;1.90;;;;;;;16.74;82.85;101043.55;1826856;77;21440;-72
2022/09/23 10:11:14;;;;;;;2.87;1.95;;;;;;;16.56;82.48;101039.13;1802356;78;21005;-73
2022/09/23 10:13:43;;;;;;;3.05;1.30;;;;;;;16.68;82.25;101030.83;1826740;77;21117;-73
2022/09/23 10:16:09;;;;;;;4.15;1.67;;;;;;;16.77;81.83;101035.07;1789699;78;21046;-72
2022/09/23 10:18:48;;;;;;;4.80;1.70;;;;;;;16.65;81.30;101030.72;1822680;78;21015;-72
2022/09/23 10:21:16;;;;;;;3.98;1.40;;;;;;;16.69;80.88;101029.81;1826231;77;20985;-72
2022/09/23 10:23:51;;;;;;;2.85;0.90;;;;;;;16.61;80.33;101025.39;1825211;77;21554;-71
2022/09/23 10:26:26;;;;;;;3.35;2.05;;;;;;;16.78;80.08;101028.12;1767728;79;21002;-71
2022/09/23 10:28:54;;;;;;;3.50;1.50;;;;;;;16.87;79.62;101022.09;1797236;78;21080;-71
2022/09/23 10:31:24;;;;;;;2.33;1.50;;;;;;;16.91;79.21;101013.94;1822200;78;21922;-71
2022/09/23 10:34:04;;;;;;;1.60;1.20;;;;;;;16.90;78.76;101014.96;1826898;77;21010;-71
2022/09/23 10:36:31;;;;;;;4.53;2.58;;;;;;;16.59;78.05;101011.81;1821152;77;20951;-72
2022/09/23 10:48:30;;;;;;;2.58;1.42;;;;;;;16.62;76.46;101009.56;1812502;77;21043;-72
2022/09/23 10:50:56;;;;;;;2.87;1.30;;;;;;;16.40;75.64;101001.98;1809074;78;28277;-72
2022/09/23 10:53:54;;;;;;;3.10;1.47;;;;;;;16.39;75.16;101001.68;1820413;78;21530;-72
2022/09/23 10:56:43;;;;;;;5.87;2.00;;;;;;;16.53;74.75;100994.55;1820265;78;21435;-71
2022/09/23 10:59:16;;;;;;;2.05;1.00;;;;;;;16.80;74.29;101003.70;1820096;78;21105;-71
2022/09/23 11:01:58;;;;;;;4.03;1.60;;;;;;;16.88;73.61;100994.13;1797038;78;20999;-71
2022/09/23 11:04:41;;;;;;;4.25;1.60;;;;;;;16.86;73.12;100990.27;1820108;77;21027;-72
2022/09/23 11:07:34;;;;;;;5.50;1.70;;;;;;;16.96;72.75;100985.87;1820291;78;21014;-72
2022/09/23 11:10:23;;;;;;;2.52;1.22;;;;;;;16.93;72.24;100979.54;1834965;77;21061;-71
2022/09/23 11:13:06;;;;;;;2.35;1.12;;;;;;;16.83;71.77;100980.41;1847623;77;25929;-72
2022/09/23 11:15:47;;;;;;;4.42;1.35;;;;;;;16.90;71.44;100983.47;1824745;77;21551;-72
2022/09/23 11:18:37;;;;;;;3.90;1.40;;;;;;;16.99;71.00;100973.38;1848221;77;21010;-72
2022/09/23 11:21:26;;;;;;;1.37;0.98;;;;;;;17.03;70.33;100971.93;1847690;77;21437;-72
2022/09/23 11:24:13;;;;;;;3.50;2.27;;;;;;;17.12;69.82;100968.06;1847723;77;21393;-72
2022/09/23 11:27:26;;;;;;;5.03;1.30;;;;;;;17.05;69.21;100971.23;1847934;77;21132;-71
2022/09/23 11:30:11;;;;;;;28.65;3.33;;;;;;;17.10;68.70;100962.02;1847423;77;20987;-72
2022/09/23 11:33:13;;;;;;;2.42;1.47;;;;;;;17.23;68.05;100959.94;1824647;77;21045;-72
2022/09/23 11:35:49;;;;;;;2.08;1.30;;;;;;;17.34;67.60;100956.17;1848091;77;20975;-72
2022/09/23 11:38:26;;;;;;;9.98;2.70;;;;;;;17.27;67.00;100956.66;1847881;77;20978;-72
2022/09/23 11:40:57;;;;;;;3.35;1.10;;;;;;;17.10;66.57;100952.59;1845976;77;21547;-72
2022/09/23 11:43:28;;;;;;;1.47;1.00;;;;;;;16.80;66.07;100949.31;1828077;77;21065;-72
2022/09/23 11:46:14;;;;;;;3.42;1.20;;;;;;;16.67;65.82;100953.78;1847721;77;21006;-72
2022/09/23 11:48:52;;;;;;;3.45;1.40;;;;;;;16.48;65.37;100949.34;1843381;77;21018;-72
2022/09/23 11:51:35;;;;;;;2.92;1.45;;;;;;;16.49;65.07;100951.02;1830472;77;21495;-72
2022/09/23 11:54:05;;;;;;;5.37;2.10;;;;;;;16.38;64.75;100947.51;1814460;77;21099;-72
2022/09/23 11:56:43;;;;;;;3.33;1.20;;;;;;;16.34;64.48;100938.66;1836082;77;21420;-72
2022/09/23 11:59:36;;;;;;;4.03;1.42;;;;;;;16.20;64.18;100939.56;1814925;77;20987;-72
2022/09/23 12:02:42;;;;;;;2.58;0.90;;;;;;;16.16;63.94;100931.05;1814883;77;21014;-72
2022/09/23 12:05:15;;;;;;;1.85;1.02;;;;;;;16.16;63.65;100929.70;1822397;77;20967;-72
2022/09/23 12:07:55;;;;;;;1.00;0.78;;;;;;;16.21;63.30;100927.28;1815643;77;21049;-72
2022/09/23 12:10:22;;;;;;;1.07;0.90;;;;;;;16.21;63.14;100922.41;1826878;77;21408;-72
2022/09/23 12:13:00;;;;;;;6.53;1.42;;;;;;;16.33;63.00;100920.83;1814246;77;20979;-72
2022/09/23 12:15:38;;;;;;;1.47;1.22;;;;;;;16.43;62.74;100917.32;1812521;77;21018;-72
2022/09/23 12:18:22;;;;;;;2.67;1.87;;;;;;;16.54;62.48;100910.56;1847987;77;21006;-72
2022/09/23 12:21:10;;;;;;;1.87;1.20;;;;;;;16.55;62.11;100910.86;1848103;77;21124;-72
2022/09/23 12:23:53;;;;;;;1.12;1.02;;;;;;;16.48;61.86;100913.00;1848027;77;20972;-72
2022/09/23 12:26:22;;;;;;;2.85;1.85;;;;;;;16.71;61.67;100903.33;1847547;77;20948;-72